Incheon International Airport
RKSI : now visible

Airfield :











YOU CAN JOIN US ON...

 
LOGIN :

Register | Disclaimer

   EN    FR    IT 

 









Legend :    VFR   Marginal VFR   IFR   Intensive IFR   Very Intensive IFR
Visi :
Ceiling :
>= 8 km
>= 3000ft
5 to 8 km
1000 to 3000 ft
1500m to 5 km
500 to 1000 ft
800 to 1500m
200 to 500 ft
< 800m
< 200 ft
Symbols :   Thunderstorms  Fog  Heavy snow  Heavy precipitations  Wind > 20 kt







- Airport Elevation : 23 ft
- IATA code : ICN


RKSI - Incheon International

CURRENT METAR :
  • 260000Z 15008KT 9000 FEW007 BKN020 24/20 Q1013 NOSIG

EXPIRED METARs :
  • 252330Z 14008KT 8000 FEW007 SCT030 25/20 Q1013 NOSIG
  • 252300Z 13005KT 9999 FEW007 SCT020 24/20 Q1013 NOSIG
  • 252230Z 08004KT 8000 FEW007 SCT020 24/20 Q1013 NOSIG
  • 252200Z 07002KT 8000 FEW010 SCT020 23/19 Q1013 NOSIG
  • 252130Z 07003KT 8000 FEW010 SCT020 22/19 Q1013 NOSIG

TAF TAF RKSI
Valid from the 26 at 00:00 until the 27 at 06:00 UTC


252300Z 2600/2706 23006KT 7000 SCT030 TX29/2605Z TN22/2621Z TX28/2705Z
BECMG 2603/2604 31007KT
BECMG 2613/2614 07006KT
TEMPO 2619/2622 FEW010 BKN025 BKN150
BECMG 2703/2704 31007KT
No reported NOTAMs for that airfield.



MET'MAP, your aeronautical weather chart ! - Copyright ORBIFLY December 2007 - Disclaimer

ORBIFLY MET'MAP TEAM :

Programming & Development : Alexandra Zaïnal
Concept & Development : Baudouin d'Aumeries
Co-Development & Prog : Marc-Olivier Méhu
Technical & hardware support : Manuel Goepfert

Contact : metmap@orbifly.com




SOURCES & CREDITS :

   NOAA       Earth
Advisory